createdAt,value
2023-05-12T00:00:04.688Z,77.66
2023-05-12T00:02:39.703Z,78.80
2023-05-12T00:05:10.037Z,79.49
2023-05-12T00:07:37.979Z,79.30
2023-05-12T00:10:06.975Z,79.23
2023-05-12T00:12:34.890Z,78.77
2023-05-12T00:15:03.106Z,78.84
2023-05-12T00:17:31.006Z,78.40
2023-05-12T00:19:58.967Z,78.67
2023-05-12T00:22:28.275Z,78.67
2023-05-12T00:24:56.159Z,78.84
2023-05-12T00:27:24.121Z,78.66
2023-05-12T00:29:52.077Z,78.99
2023-05-12T00:32:19.966Z,78.98
2023-05-12T00:34:48.047Z,79.26
2023-05-12T00:37:15.973Z,79.10
2023-05-12T00:39:45.347Z,79.25
2023-05-12T00:42:13.584Z,79.36
2023-05-12T00:44:41.587Z,79.68
2023-05-12T00:47:10.562Z,79.50
2023-05-12T00:49:38.570Z,80.06
2023-05-12T00:52:07.657Z,80.28
2023-05-12T00:54:36.272Z,80.95
2023-05-12T00:57:06.275Z,82.36
2023-05-12T00:59:34.419Z,83.53
2023-05-12T01:02:02.517Z,82.93
2023-05-12T01:04:31.149Z,82.26
2023-05-12T01:07:03.787Z,81.36
2023-05-12T01:09:31.866Z,80.72
2023-05-12T01:12:00.827Z,80.64
2023-05-12T01:14:30.268Z,80.81
2023-05-12T01:17:03.561Z,80.70
2023-05-12T01:19:41.710Z,80.69
2023-05-12T01:22:12.309Z,80.43
2023-05-12T01:24:53.244Z,79.94
2023-05-12T01:27:25.408Z,80.08
2023-05-12T01:29:55.732Z,80.06
2023-05-12T01:32:24.229Z,80.50
2023-05-12T01:34:53.088Z,81.06
2023-05-12T01:37:21.831Z,81.96
2023-05-12T01:39:50.378Z,82.95
2023-05-12T01:42:22.877Z,84.58
2023-05-12T01:44:51.472Z,84.15
2023-05-12T01:47:21.727Z,84.35
2023-05-12T01:50:11.036Z,83.93
2023-05-12T01:52:39.692Z,82.85
2023-05-12T01:55:11.533Z,82.29
2023-05-12T01:57:47.792Z,82.05
2023-05-12T02:00:16.784Z,81.76
2023-05-12T02:02:47.361Z,81.74
2023-05-12T02:05:15.968Z,81.44
2023-05-12T02:07:46.711Z,81.59
2023-05-12T02:10:14.678Z,81.64
2023-05-12T02:12:42.724Z,81.44
2023-05-12T02:15:12.992Z,81.31
2023-05-12T02:17:45.490Z,81.31
2023-05-12T02:20:14.859Z,81.20
2023-05-12T02:22:44.314Z,81.70
2023-05-12T02:25:12.268Z,81.42
2023-05-12T02:27:40.243Z,81.23
2023-05-12T02:30:09.955Z,81.38
2023-05-12T02:32:39.338Z,81.53
2023-05-12T02:35:09.534Z,81.29
2023-05-12T02:37:38.822Z,81.50
2023-05-12T02:40:08.609Z,81.32
2023-05-12T02:42:38.478Z,81.96
2023-05-12T02:45:07.743Z,81.99
2023-05-12T02:47:36.403Z,82.08
2023-05-12T02:50:06.597Z,82.68
2023-05-12T02:52:34.577Z,83.82
2023-05-12T02:55:02.920Z,84.15
2023-05-12T02:57:34.010Z,83.85
2023-05-12T03:00:04.736Z,83.20
2023-05-12T03:02:36.283Z,82.74
2023-05-12T03:05:06.590Z,82.44
2023-05-12T03:07:34.582Z,82.08
2023-05-12T03:10:02.883Z,81.88
2023-05-12T03:12:32.159Z,81.85
2023-05-12T03:15:00.799Z,81.75
2023-05-12T03:17:28.783Z,82.03
2023-05-12T03:19:56.937Z,81.43
2023-05-12T03:22:26.296Z,81.73
2023-05-12T03:24:54.288Z,81.76
2023-05-12T03:27:23.396Z,81.33
2023-05-12T03:29:51.915Z,81.92
2023-05-12T03:32:20.092Z,81.60
2023-05-12T03:34:48.074Z,81.96
2023-05-12T03:37:17.165Z,82.00
2023-05-12T03:39:48.437Z,83.17
2023-05-12T03:42:16.826Z,82.93
2023-05-12T03:44:44.908Z,83.39
2023-05-12T03:47:13.734Z,83.76
2023-05-12T03:49:41.796Z,83.59
2023-05-12T03:52:09.739Z,83.15
2023-05-12T03:54:38.142Z,83.35
2023-05-12T03:57:08.232Z,83.74
2023-05-12T03:59:36.349Z,84.08
2023-05-12T04:02:04.396Z,83.86
2023-05-12T04:04:32.470Z,83.59
2023-05-12T04:07:01.151Z,83.24
2023-05-12T04:09:29.068Z,82.84
2023-05-12T04:11:56.978Z,83.45
2023-05-12T04:14:35.332Z,82.81
2023-05-12T04:17:10.053Z,82.62
2023-05-12T04:19:38.232Z,83.14
2023-05-12T04:22:06.506Z,83.31
2023-05-12T04:24:34.434Z,83.51
2023-05-12T04:27:02.355Z,83.53
2023-05-12T04:29:31.730Z,83.20
2023-05-12T04:32:00.150Z,83.55
2023-05-12T04:34:28.365Z,84.62
2023-05-12T04:36:56.974Z,84.23
2023-05-12T04:39:24.927Z,83.99
2023-05-12T04:41:52.928Z,83.64
2023-05-12T04:44:22.195Z,83.44
2023-05-12T04:46:56.227Z,83.07
2023-05-12T04:49:24.246Z,83.31
2023-05-12T04:51:52.303Z,83.11
2023-05-12T04:54:20.215Z,83.00
2023-05-12T04:56:48.138Z,82.84
2023-05-12T04:59:16.501Z,83.03
2023-05-12T05:01:46.471Z,82.62
2023-05-12T05:04:16.923Z,82.65
2023-05-12T05:06:45.076Z,82.61
2023-05-12T05:09:13.792Z,82.60
2023-05-12T05:11:41.735Z,82.78
2023-05-12T05:14:09.720Z,82.87
2023-05-12T05:16:37.776Z,82.91
2023-05-12T05:19:06.783Z,83.18
2023-05-12T05:21:41.416Z,83.22
2023-05-12T05:24:09.702Z,83.59
2023-05-12T05:26:37.635Z,84.58
2023-05-12T05:29:06.316Z,84.94
2023-05-12T05:31:35.284Z,85.02
2023-05-12T05:34:03.890Z,85.16
2023-05-12T05:36:32.197Z,85.25
2023-05-12T05:39:01.514Z,85.27
2023-05-12T05:41:29.602Z,85.10
2023-05-12T05:43:57.958Z,85.43
2023-05-12T05:46:26.004Z,85.13
2023-05-12T05:48:54.151Z,84.83
2023-05-12T05:51:22.557Z,83.77
2023-05-12T05:53:50.567Z,82.21
2023-05-12T05:56:20.993Z,81.95
2023-05-12T05:58:48.985Z,81.62
2023-05-12T06:01:16.932Z,82.48
2023-05-12T06:03:45.222Z,83.93
2023-05-12T06:06:13.390Z,84.58
2023-05-12T06:08:41.327Z,84.46
2023-05-12T06:11:09.311Z,83.79
2023-05-12T06:13:38.826Z,81.97
2023-05-12T06:16:07.295Z,80.99
2023-05-12T06:18:38.049Z,80.82
2023-05-12T06:21:07.050Z,79.94
2023-05-12T06:23:35.043Z,80.53
2023-05-12T06:26:03.187Z,80.51
2023-05-12T06:28:31.111Z,80.80
2023-05-12T06:31:00.965Z,80.52
2023-05-12T06:33:28.993Z,80.77
2023-05-12T06:35:57.516Z,81.18
2023-05-12T06:38:26.480Z,80.74
2023-05-12T06:40:54.472Z,81.30
2023-05-12T06:43:23.372Z,82.54
2023-05-12T06:45:56.873Z,82.65
2023-05-12T06:48:26.391Z,82.55
2023-05-12T06:50:58.330Z,82.48
2023-05-12T06:53:30.326Z,82.21
2023-05-12T06:55:58.943Z,83.43
2023-05-12T06:58:26.933Z,82.44
2023-05-12T07:00:54.897Z,82.86
2023-05-12T07:03:22.836Z,83.36
2023-05-12T07:05:52.476Z,83.19
2023-05-12T07:08:20.775Z,83.17
2023-05-12T07:10:48.804Z,82.56
2023-05-12T07:13:16.824Z,81.32
2023-05-12T07:15:44.936Z,81.93
2023-05-12T07:18:13.024Z,82.60
2023-05-12T07:20:41.043Z,81.87
2023-05-12T07:23:10.533Z,82.54
2023-05-12T07:25:39.279Z,81.91
2023-05-12T07:28:07.318Z,82.11
2023-05-12T07:30:35.297Z,82.52
2023-05-12T07:33:03.241Z,81.15
2023-05-12T07:35:31.507Z,79.71
2023-05-12T07:37:59.472Z,79.35
2023-05-12T07:40:28.818Z,78.91
2023-05-12T07:42:56.783Z,77.74
2023-05-12T07:45:25.321Z,77.70
2023-05-12T07:47:53.345Z,76.20
2023-05-12T07:50:21.719Z,75.35
2023-05-12T07:52:50.489Z,74.86
2023-05-12T07:55:19.440Z,74.85
2023-05-12T07:57:50.314Z,73.65
2023-05-12T08:00:18.800Z,73.89
2023-05-12T08:02:47.190Z,73.69
2023-05-12T08:05:15.758Z,73.43
2023-05-12T08:07:44.494Z,73.64
2023-05-12T08:10:13.096Z,74.19
2023-05-12T08:12:42.070Z,73.06
2023-05-12T08:15:12.203Z,73.01
2023-05-12T08:17:40.227Z,73.28
2023-05-12T08:20:09.211Z,72.33
2023-05-12T08:22:37.127Z,72.31
2023-05-12T08:25:06.222Z,72.27
2023-05-12T08:27:34.123Z,72.91
2023-05-12T08:30:02.040Z,72.74
2023-05-12T08:32:31.975Z,73.75
2023-05-12T08:34:59.948Z,73.10
2023-05-12T08:37:28.219Z,72.05
2023-05-12T08:39:56.365Z,72.65
2023-05-12T08:42:32.378Z,71.16
2023-05-12T08:45:01.588Z,71.46
2023-05-12T08:47:33.499Z,71.82
2023-05-12T08:50:03.421Z,71.42
2023-05-12T08:52:34.169Z,70.96
2023-05-12T08:55:03.417Z,70.43
2023-05-12T08:57:32.419Z,70.83
2023-05-12T09:00:00.481Z,70.72
2023-05-12T09:02:41.322Z,70.04
2023-05-12T09:05:20.175Z,69.02
2023-05-12T09:07:50.820Z,69.56
2023-05-12T09:10:33.663Z,69.01
2023-05-12T09:13:05.784Z,68.53
2023-05-12T09:15:37.493Z,69.15
2023-05-12T09:18:07.179Z,68.79
2023-05-12T09:20:35.435Z,69.24
2023-05-12T09:23:16.723Z,67.98
2023-05-12T09:25:44.815Z,68.96
2023-05-12T09:28:12.782Z,69.77
2023-05-12T09:30:42.502Z,68.99
2023-05-12T09:33:13.981Z,69.01
2023-05-12T09:35:43.043Z,69.13
2023-05-12T09:38:12.321Z,68.08
2023-05-12T09:40:41.007Z,68.47
2023-05-12T09:43:09.701Z,67.20
2023-05-12T09:45:38.957Z,66.50
2023-05-12T09:48:12.585Z,65.02
2023-05-12T09:50:48.675Z,64.87
2023-05-12T09:53:18.393Z,65.49
2023-05-12T09:55:47.129Z,65.00
2023-05-12T09:58:17.648Z,64.87
2023-05-12T10:03:22.098Z,63.74
2023-05-12T10:05:51.760Z,64.25
2023-05-12T10:08:25.688Z,64.72
2023-05-12T10:10:56.518Z,65.57
2023-05-12T10:13:26.332Z,64.91
2023-05-12T10:15:57.387Z,65.35
2023-05-12T10:18:27.487Z,65.39
2023-05-12T10:20:56.859Z,65.27
2023-05-12T10:23:26.802Z,64.88
2023-05-12T10:25:58.563Z,64.85
2023-05-12T10:28:26.573Z,65.45
2023-05-12T10:30:55.286Z,65.18
2023-05-12T10:33:23.214Z,64.75
2023-05-12T10:35:53.276Z,65.04
2023-05-12T10:38:21.266Z,65.60
2023-05-12T10:40:58.153Z,61.23
2023-05-12T10:43:28.699Z,62.45
2023-05-12T10:46:10.812Z,61.21
2023-05-12T10:48:52.736Z,61.72
2023-05-12T10:51:23.828Z,60.78
2023-05-12T10:53:58.321Z,60.91
2023-05-12T10:56:29.650Z,61.80
2023-05-12T10:59:08.992Z,59.90
2023-05-12T11:01:37.878Z,61.67
2023-05-12T11:04:17.481Z,60.46
2023-05-12T11:06:47.606Z,60.86
2023-05-12T11:09:18.292Z,60.28
2023-05-12T11:11:47.677Z,59.94
2023-05-12T11:14:16.117Z,60.44
2023-05-12T11:16:44.681Z,61.41
2023-05-12T11:19:13.554Z,60.56
2023-05-12T11:21:42.051Z,61.00
2023-05-12T11:24:14.421Z,61.11
2023-05-12T11:26:42.430Z,60.72
2023-05-12T11:29:10.458Z,61.03
2023-05-12T11:31:39.690Z,60.99
2023-05-12T11:34:13.133Z,59.86
2023-05-12T11:36:43.623Z,60.13
2023-05-12T11:39:17.543Z,60.32
2023-05-12T11:41:46.066Z,60.25
2023-05-12T11:44:15.478Z,59.95
2023-05-12T11:46:43.732Z,59.55
2023-05-12T11:49:13.693Z,59.90
2023-05-12T11:51:44.669Z,58.73
2023-05-12T11:54:12.670Z,58.91
2023-05-12T11:56:49.135Z,59.19
2023-05-12T11:59:28.200Z,57.79
2023-05-12T12:01:56.388Z,59.43
2023-05-12T12:04:40.434Z,60.20
2023-05-12T12:07:09.685Z,59.64
2023-05-12T12:09:40.647Z,59.21
2023-05-12T12:12:12.221Z,59.01
2023-05-12T12:14:41.630Z,58.75
2023-05-12T12:17:09.651Z,58.64
2023-05-12T12:19:37.631Z,58.17
2023-05-12T12:22:06.252Z,57.93
2023-05-12T12:24:34.270Z,58.36
2023-05-12T12:27:02.179Z,58.63
2023-05-12T12:29:31.686Z,57.68
2023-05-12T12:31:59.658Z,57.11
2023-05-12T12:34:27.702Z,56.76
2023-05-12T12:36:55.954Z,56.25
2023-05-12T12:39:24.171Z,56.23
2023-05-12T12:41:52.092Z,55.79
2023-05-12T12:44:19.980Z,56.18
2023-05-12T12:46:49.398Z,56.46
2023-05-12T12:49:17.374Z,57.27
2023-05-12T12:51:46.668Z,55.35
2023-05-12T12:54:15.936Z,55.83
2023-05-12T12:56:45.263Z,55.29
2023-05-12T12:59:13.162Z,55.25
2023-05-12T13:01:41.187Z,55.70
2023-05-12T13:04:10.548Z,56.31
2023-05-12T13:06:38.537Z,56.24
2023-05-12T13:09:06.444Z,57.35
2023-05-12T13:11:34.524Z,57.29
2023-05-12T13:14:04.427Z,57.64
2023-05-12T13:16:32.471Z,57.36
2023-05-12T13:19:00.512Z,57.19
2023-05-12T13:21:29.990Z,56.67
2023-05-12T13:23:57.887Z,56.78
2023-05-12T13:26:25.918Z,56.21
2023-05-12T13:28:53.894Z,55.45
2023-05-12T13:31:22.066Z,55.73
2023-05-12T13:33:50.068Z,56.26
2023-05-12T13:36:18.002Z,57.22
2023-05-12T13:38:47.284Z,57.05
2023-05-12T13:41:15.334Z,57.04
2023-05-12T13:43:43.770Z,57.62
2023-05-12T13:46:11.767Z,57.69
2023-05-12T13:48:39.730Z,58.46
2023-05-12T13:51:07.689Z,56.85
2023-05-12T13:53:38.478Z,56.83
2023-05-12T13:56:17.542Z,56.45
2023-05-12T13:58:45.810Z,56.31
2023-05-12T14:01:14.017Z,55.93
2023-05-12T14:03:42.841Z,57.04
2023-05-12T14:06:12.073Z,57.41
2023-05-12T14:08:41.537Z,57.05
2023-05-12T14:11:10.237Z,57.68
2023-05-12T14:13:39.578Z,56.72
2023-05-12T14:16:08.202Z,56.50
2023-05-12T14:18:36.185Z,56.17
2023-05-12T14:21:04.233Z,55.98
2023-05-12T14:23:32.181Z,55.28
2023-05-12T14:26:00.168Z,55.72
2023-05-12T14:28:29.010Z,55.38
2023-05-12T14:30:58.412Z,53.76
2023-05-12T14:33:26.799Z,55.24
2023-05-12T14:36:05.859Z,55.46
2023-05-12T14:38:35.751Z,55.25
2023-05-12T14:41:04.024Z,55.14
2023-05-12T14:43:31.949Z,54.98
2023-05-12T14:46:02.348Z,56.39
2023-05-12T14:48:30.468Z,57.81
2023-05-12T14:50:59.207Z,58.92
2023-05-12T14:53:27.430Z,60.93
2023-05-12T14:55:55.385Z,60.99
2023-05-12T14:58:24.284Z,61.41
2023-05-12T15:00:52.907Z,61.81
2023-05-12T15:03:22.415Z,61.90
2023-05-12T15:06:05.609Z,62.00
2023-05-12T15:08:34.648Z,62.51
2023-05-12T15:11:02.583Z,62.94
2023-05-12T15:13:30.656Z,64.25
2023-05-12T15:15:58.700Z,64.85
2023-05-12T15:18:28.142Z,64.96
2023-05-12T15:20:56.094Z,65.44
2023-05-12T15:23:24.058Z,65.73
2023-05-12T15:25:51.978Z,66.05
2023-05-12T15:28:20.929Z,66.52
2023-05-12T15:30:56.084Z,66.76
2023-05-12T15:33:24.210Z,67.15
2023-05-12T15:35:53.584Z,67.74
2023-05-12T15:38:21.486Z,68.36
2023-05-12T15:40:49.375Z,68.84
2023-05-12T15:43:18.152Z,68.43
2023-05-12T15:45:46.258Z,68.49
2023-05-12T15:48:14.237Z,68.47
2023-05-12T15:50:42.175Z,69.37
2023-05-12T15:53:11.497Z,69.36
2023-05-12T15:55:39.508Z,69.72
2023-05-12T15:58:08.308Z,69.86
2023-05-12T16:00:36.378Z,69.90
2023-05-12T16:03:04.424Z,70.12
2023-05-12T16:05:34.103Z,70.29
2023-05-12T16:08:02.044Z,70.21
2023-05-12T16:10:31.309Z,70.49
2023-05-12T16:12:59.207Z,69.79
2023-05-12T16:15:27.390Z,68.97
2023-05-12T16:17:55.328Z,69.12
2023-05-12T16:20:23.232Z,69.07
2023-05-12T16:22:51.327Z,69.61
2023-05-12T16:25:20.220Z,70.04
2023-05-12T16:27:49.722Z,69.86
2023-05-12T16:30:19.881Z,70.14
2023-05-12T16:32:48.426Z,70.12
2023-05-12T16:35:16.485Z,69.03
2023-05-12T16:37:44.425Z,68.63
2023-05-12T16:40:12.807Z,67.97
2023-05-12T16:42:40.772Z,66.87
2023-05-12T16:45:12.003Z,66.95
2023-05-12T16:47:39.970Z,66.65
2023-05-12T16:50:09.457Z,66.17
2023-05-12T16:52:37.334Z,66.61
2023-05-12T16:55:05.782Z,66.11
2023-05-12T16:57:34.287Z,66.91
2023-05-12T17:00:05.351Z,68.64
2023-05-12T17:02:34.783Z,70.33
2023-05-12T17:05:02.833Z,71.56
2023-05-12T17:07:31.100Z,71.68
2023-05-12T17:09:59.043Z,74.40
2023-05-12T17:12:27.145Z,75.04
2023-05-12T17:15:06.283Z,76.03
2023-05-12T17:17:37.332Z,76.25
2023-05-12T17:20:06.609Z,76.92
2023-05-12T17:22:37.303Z,78.12
2023-05-12T17:25:05.893Z,78.47
2023-05-12T17:27:33.807Z,79.05
2023-05-12T17:30:04.131Z,78.52
2023-05-12T17:32:32.768Z,78.75
2023-05-12T17:35:02.216Z,78.17
2023-05-12T17:37:30.438Z,78.32
2023-05-12T17:39:59.353Z,78.85
2023-05-12T17:42:29.935Z,79.50
2023-05-12T17:44:58.287Z,78.94
2023-05-12T17:47:26.624Z,79.44
2023-05-12T17:49:54.717Z,79.95
2023-05-12T17:52:24.021Z,80.66
2023-05-12T17:54:55.729Z,81.50
2023-05-12T17:57:23.737Z,82.10
2023-05-12T17:59:52.158Z,82.25
2023-05-12T18:02:20.155Z,82.33
2023-05-12T18:04:48.553Z,80.88
2023-05-12T18:07:16.493Z,79.82
2023-05-12T18:09:45.796Z,79.61
2023-05-12T18:12:14.067Z,80.03
2023-05-12T18:14:41.973Z,80.10
2023-05-12T18:17:10.016Z,80.99
2023-05-12T18:19:37.943Z,80.80
2023-05-12T18:22:06.268Z,81.85
2023-05-12T18:24:34.221Z,84.08
2023-05-12T18:27:05.859Z,85.38
2023-05-12T18:29:34.375Z,85.86
2023-05-12T18:32:02.252Z,85.49
2023-05-12T18:34:30.193Z,85.71
2023-05-12T18:36:58.131Z,86.26
2023-05-12T18:39:26.167Z,86.90
2023-05-12T18:41:55.348Z,85.33
2023-05-12T18:44:24.805Z,85.71
2023-05-12T18:46:52.798Z,85.34
2023-05-12T18:49:20.814Z,86.29
2023-05-12T18:51:48.704Z,86.97
2023-05-12T18:54:16.621Z,87.05
2023-05-12T18:56:44.567Z,87.44
2023-05-12T18:59:12.539Z,88.98
2023-05-12T19:01:42.258Z,89.98
2023-05-12T19:04:10.254Z,89.68
2023-05-12T19:06:38.500Z,90.10
2023-05-12T19:09:06.436Z,91.30
2023-05-12T19:11:34.375Z,93.08
2023-05-12T19:14:02.265Z,93.16
2023-05-12T19:16:31.944Z,92.21
2023-05-12T19:19:03.046Z,91.88
2023-05-12T19:21:32.400Z,91.33
2023-05-12T19:24:01.152Z,90.54
2023-05-12T19:26:29.321Z,90.28
2023-05-12T19:28:57.352Z,90.43
2023-05-12T19:31:25.426Z,89.70
2023-05-12T19:33:53.490Z,89.97
2023-05-12T19:36:22.804Z,89.75
2023-05-12T19:38:50.698Z,90.01
2023-05-12T19:41:18.678Z,89.79
2023-05-12T19:43:46.648Z,89.67
2023-05-12T19:46:15.111Z,89.92
2023-05-12T19:48:43.416Z,90.60
2023-05-12T19:51:11.434Z,90.04
2023-05-12T19:53:41.130Z,89.82
2023-05-12T19:56:09.109Z,89.37
2023-05-12T19:58:37.004Z,89.80
2023-05-12T20:01:05.143Z,89.37
2023-05-12T20:03:33.223Z,89.79
2023-05-12T20:06:01.258Z,90.36
2023-05-12T20:08:29.258Z,90.55
2023-05-12T20:10:58.705Z,89.78
2023-05-12T20:13:26.598Z,90.54
2023-05-12T20:15:55.883Z,90.82
2023-05-12T20:18:24.030Z,90.37
2023-05-12T20:20:52.086Z,90.04
2023-05-12T20:23:19.993Z,90.44
2023-05-12T20:25:48.055Z,90.43
2023-05-12T20:28:17.355Z,90.09
2023-05-12T20:30:45.308Z,90.42
2023-05-12T20:33:13.237Z,91.55
2023-05-12T20:35:41.136Z,91.48
2023-05-12T20:38:09.166Z,91.80
2023-05-12T20:40:37.116Z,92.18
2023-05-12T20:43:05.025Z,92.28
2023-05-12T20:45:34.507Z,91.31
2023-05-12T20:48:02.949Z,91.15
2023-05-12T20:50:30.958Z,91.57
2023-05-12T20:52:58.947Z,92.16
2023-05-12T20:55:27.032Z,92.25
2023-05-12T20:57:55.306Z,92.30
2023-05-12T21:00:23.383Z,92.13
2023-05-12T21:02:52.749Z,92.42
2023-05-12T21:05:21.161Z,91.73
2023-05-12T21:07:49.312Z,92.21
2023-05-12T21:10:17.212Z,91.96
2023-05-12T21:12:45.204Z,91.85
2023-05-12T21:15:13.161Z,92.34
2023-05-12T21:17:41.736Z,92.43
2023-05-12T21:20:12.986Z,91.98
2023-05-12T21:22:41.632Z,91.76
2023-05-12T21:25:10.307Z,91.47
2023-05-12T21:27:40.639Z,91.58
2023-05-12T21:30:10.189Z,91.81
2023-05-12T21:32:38.360Z,90.91
2023-05-12T21:35:07.305Z,91.29
2023-05-12T21:37:36.855Z,90.88
2023-05-12T21:40:05.756Z,90.78
2023-05-12T21:42:33.679Z,90.67
2023-05-12T21:45:01.593Z,90.56
2023-05-12T21:47:29.579Z,90.44
2023-05-12T21:49:57.804Z,90.63
2023-05-12T21:52:26.073Z,90.77
2023-05-12T21:54:55.378Z,91.42
2023-05-12T21:57:23.257Z,91.28
2023-05-12T21:59:51.304Z,91.18
2023-05-12T22:02:19.286Z,90.79
2023-05-12T22:04:47.956Z,90.66
2023-05-12T22:07:15.896Z,90.62
2023-05-12T22:09:44.675Z,91.13
2023-05-12T22:12:17.583Z,90.96
2023-05-12T22:14:45.672Z,90.67
2023-05-12T22:17:13.694Z,90.81
2023-05-12T22:19:41.628Z,90.65
2023-05-12T22:22:09.688Z,90.94
2023-05-12T22:24:37.602Z,91.18
2023-05-12T22:27:05.719Z,91.73
2023-05-12T22:29:35.028Z,91.25
2023-05-12T22:32:02.972Z,92.09
2023-05-12T22:34:30.898Z,92.76
2023-05-12T22:36:58.896Z,93.26
2023-05-12T22:39:26.919Z,92.87
2023-05-12T22:41:54.858Z,93.37
2023-05-12T22:44:22.752Z,92.52
2023-05-12T22:46:52.080Z,92.62
2023-05-12T22:49:20.031Z,92.35
2023-05-12T22:51:48.029Z,91.65
2023-05-12T22:54:15.962Z,92.11
2023-05-12T22:56:44.815Z,91.83
2023-05-12T22:59:12.900Z,91.85
2023-05-12T23:01:40.943Z,92.11
2023-05-12T23:04:10.395Z,92.31
2023-05-12T23:06:38.390Z,92.18
2023-05-12T23:09:06.366Z,92.11
2023-05-12T23:11:34.369Z,92.58
2023-05-12T23:14:02.504Z,92.11
2023-05-12T23:16:30.559Z,91.98
2023-05-12T23:18:58.539Z,92.00
2023-05-12T23:21:27.902Z,92.30
2023-05-12T23:23:55.821Z,91.81
2023-05-12T23:26:23.818Z,92.26
2023-05-12T23:28:51.756Z,92.29
2023-05-12T23:31:19.734Z,92.07
2023-05-12T23:33:47.728Z,91.88
2023-05-12T23:36:15.844Z,91.65
2023-05-12T23:38:45.125Z,91.94
2023-05-12T23:41:13.090Z,92.02
2023-05-12T23:43:42.309Z,91.63
2023-05-12T23:46:10.282Z,91.29
2023-05-12T23:48:38.212Z,91.75
2023-05-12T23:51:06.152Z,91.36
2023-05-12T23:53:34.112Z,91.96
2023-05-12T23:56:04.039Z,92.23
2023-05-12T23:58:31.982Z,92.12
